sensor_id;sensor_type;location;lat;lon;timestamp;pressure;altitude;pressure_sealevel;temperature;humidity
19795;BME280;10057;59.402;17.866;2023-05-20T00:01:50;102991.84;;;10.58;50.03
19795;BME280;10057;59.402;17.866;2023-05-20T00:04:17;102990.97;;;10.59;49.85
19795;BME280;10057;59.402;17.866;2023-05-20T00:06:44;103001.59;;;10.61;50.05
19795;BME280;10057;59.402;17.866;2023-05-20T00:09:11;102997.19;;;10.51;49.76
19795;BME280;10057;59.402;17.866;2023-05-20T00:11:37;102991.88;;;10.41;50.37
19795;BME280;10057;59.402;17.866;2023-05-20T00:14:04;102993.66;;;10.35;50.26
19795;BME280;10057;59.402;17.866;2023-05-20T00:16:31;102995.44;;;10.36;50.65
19795;BME280;10057;59.402;17.866;2023-05-20T00:18:58;102989.25;;;10.34;50.69
19795;BME280;10057;59.402;17.866;2023-05-20T00:21:25;102988.34;;;10.32;50.52
19795;BME280;10057;59.402;17.866;2023-05-20T00:23:52;102991.91;;;10.29;50.80
19795;BME280;10057;59.402;17.866;2023-05-20T00:26:19;102989.25;;;10.29;50.54
19795;BME280;10057;59.402;17.866;2023-05-20T00:28:46;102993.66;;;10.32;50.76
19795;BME280;10057;59.402;17.866;2023-05-20T00:31:13;102995.41;;;10.34;51.06
19795;BME280;10057;59.402;17.866;2023-05-20T00:33:40;102999.84;;;10.28;50.88
19795;BME280;10057;59.402;17.866;2023-05-20T00:36:07;102998.03;;;10.22;50.78
19795;BME280;10057;59.402;17.866;2023-05-20T00:38:34;103007.78;;;10.14;51.16
19795;BME280;10057;59.402;17.866;2023-05-20T00:41:01;102994.50;;;10.09;51.02
19795;BME280;10057;59.402;17.866;2023-05-20T00:43:27;102999.81;;;10.06;51.19
19795;BME280;10057;59.402;17.866;2023-05-20T00:45:54;102993.63;;;10.03;50.98
19795;BME280;10057;59.402;17.866;2023-05-20T00:48:21;102992.75;;;10.02;51.35
19795;BME280;10057;59.402;17.866;2023-05-20T00:50:48;102995.38;;;10.04;51.72
19795;BME280;10057;59.402;17.866;2023-05-20T00:53:16;102992.75;;;10.02;51.53
19795;BME280;10057;59.402;17.866;2023-05-20T00:55:44;102998.06;;;10.02;51.67
19795;BME280;10057;59.402;17.866;2023-05-20T00:58:11;102995.38;;;10.01;51.98
19795;BME280;10057;59.402;17.866;2023-05-20T01:00:38;102990.97;;;10.01;52.22
19795;BME280;10057;59.402;17.866;2023-05-20T01:03:05;102991.88;;;9.99;51.80
19795;BME280;10057;59.402;17.866;2023-05-20T01:05:32;103001.56;;;9.96;52.10
19795;BME280;10057;59.402;17.866;2023-05-20T01:07:59;103000.69;;;9.91;51.87
19795;BME280;10057;59.402;17.866;2023-05-20T01:10:27;103004.19;;;9.87;51.83
19795;BME280;10057;59.402;17.866;2023-05-20T01:12:57;103000.66;;;9.81;52.02
19795;BME280;10057;59.402;17.866;2023-05-20T01:15:27;103001.53;;;9.75;52.25
19795;BME280;10057;59.402;17.866;2023-05-20T01:17:57;102997.13;;;9.71;52.33
19795;BME280;10057;59.402;17.866;2023-05-20T01:20:27;102998.84;;;9.67;53.27
19795;BME280;10057;59.402;17.866;2023-05-20T01:22:58;103005.94;;;9.67;52.72
19795;BME280;10057;59.402;17.866;2023-05-20T01:25:25;103004.16;;;9.66;53.18
19795;BME280;10057;59.402;17.866;2023-05-20T01:27:53;103009.47;;;9.63;52.93
19795;BME280;10057;59.402;17.866;2023-05-20T01:30:21;103009.44;;;9.55;53.32
19795;BME280;10057;59.402;17.866;2023-05-20T01:32:53;103005.91;;;9.55;53.84
19795;BME280;10057;59.402;17.866;2023-05-20T01:35:21;103002.34;;;9.53;53.60
19795;BME280;10057;59.402;17.866;2023-05-20T01:37:49;103004.97;;;9.46;53.11
19795;BME280;10057;59.402;17.866;2023-05-20T01:40:18;103002.31;;;9.42;53.01
19795;BME280;10057;59.402;17.866;2023-05-20T01:42:45;103007.63;;;9.40;54.03
19795;BME280;10057;59.402;17.866;2023-05-20T01:45:18;103006.72;;;9.38;53.82
19795;BME280;10057;59.402;17.866;2023-05-20T01:47:45;103007.59;;;9.34;53.66
19795;BME280;10057;59.402;17.866;2023-05-20T01:50:12;103007.56;;;9.30;54.17
19795;BME280;10057;59.402;17.866;2023-05-20T01:52:39;103005.81;;;9.24;54.34
19795;BME280;10057;59.402;17.866;2023-05-20T01:55:06;103011.06;;;9.19;54.33
19795;BME280;10057;59.402;17.866;2023-05-20T01:57:32;103009.25;;;9.09;54.37
19795;BME280;10057;59.402;17.866;2023-05-20T01:59:59;103005.69;;;9.01;54.42
19795;BME280;10057;59.402;17.866;2023-05-20T02:02:26;103018.00;;;8.94;54.96
19795;BME280;10057;59.402;17.866;2023-05-20T02:04:53;103013.56;;;8.92;54.88
19795;BME280;10057;59.402;17.866;2023-05-20T02:07:20;103016.25;;;8.96;55.00
19795;BME280;10057;59.402;17.866;2023-05-20T02:09:47;103014.50;;;8.98;54.91
19795;BME280;10057;59.402;17.866;2023-05-20T02:12:14;103019.81;;;9.01;55.49
19795;BME280;10057;59.402;17.866;2023-05-20T02:14:47;103019.81;;;9.05;55.60
19795;BME280;10057;59.402;17.866;2023-05-20T02:17:16;103019.84;;;9.08;55.27
19795;BME280;10057;59.402;17.866;2023-05-20T02:19:44;103021.59;;;9.06;54.58
19795;BME280;10057;59.402;17.866;2023-05-20T02:22:11;103023.34;;;9.04;55.55
19795;BME280;10057;59.402;17.866;2023-05-20T02:24:38;103019.81;;;9.01;55.39
19795;BME280;10057;59.402;17.866;2023-05-20T02:27:05;103023.31;;;8.97;55.01
19795;BME280;10057;59.402;17.866;2023-05-20T02:29:32;103017.13;;;8.92;55.77
19795;BME280;10057;59.402;17.866;2023-05-20T02:31:59;103025.91;;;8.87;55.58
19795;BME280;10057;59.402;17.866;2023-05-20T02:34:26;103022.34;;;8.85;55.54
19795;BME280;10057;59.402;17.866;2023-05-20T02:36:53;103017.94;;;8.82;55.75
19795;BME280;10057;59.402;17.866;2023-05-20T02:39:20;103025.00;;;8.83;55.29
19795;BME280;10057;59.402;17.866;2023-05-20T02:41:47;103024.09;;;8.80;55.37
19795;BME280;10057;59.402;17.866;2023-05-20T02:44:14;103017.91;;;8.76;56.20
19795;BME280;10057;59.402;17.866;2023-05-20T02:46:40;103021.41;;;8.72;56.51
19795;BME280;10057;59.402;17.866;2023-05-20T02:49:07;103024.88;;;8.68;56.17
19795;BME280;10057;59.402;17.866;2023-05-20T02:51:35;103028.44;;;8.68;56.48
19795;BME280;10057;59.402;17.866;2023-05-20T02:54:01;103021.38;;;8.69;56.68
19795;BME280;10057;59.402;17.866;2023-05-20T02:56:29;103029.31;;;8.70;56.05
19795;BME280;10057;59.402;17.866;2023-05-20T02:58:55;103026.69;;;8.75;56.63
19795;BME280;10057;59.402;17.866;2023-05-20T03:01:22;103029.38;;;8.76;56.95
19795;BME280;10057;59.402;17.866;2023-05-20T03:03:49;103030.25;;;8.77;56.45
19795;BME280;10057;59.402;17.866;2023-05-20T03:06:16;103035.56;;;8.80;56.40
19795;BME280;10057;59.402;17.866;2023-05-20T03:08:43;103037.34;;;8.84;56.34
19795;BME280;10057;59.402;17.866;2023-05-20T03:11:10;103036.53;;;8.90;56.87
19795;BME280;10057;59.402;17.866;2023-05-20T03:13:37;103034.75;;;8.92;56.69
19795;BME280;10057;59.402;17.866;2023-05-20T03:16:04;103041.84;;;8.96;56.59
19795;BME280;10057;59.402;17.866;2023-05-20T03:18:30;103036.56;;;8.99;56.82
19795;BME280;10057;59.402;17.866;2023-05-20T03:20:57;103039.25;;;9.04;56.32
19795;BME280;10057;59.402;17.866;2023-05-20T03:23:24;103048.09;;;9.09;56.20
19795;BME280;10057;59.402;17.866;2023-05-20T03:25:51;103048.09;;;9.12;56.14
19795;BME280;10057;59.402;17.866;2023-05-20T03:28:17;103045.50;;;9.16;56.29
19795;BME280;10057;59.402;17.866;2023-05-20T03:30:44;103041.09;;;9.23;56.27
19795;BME280;10057;59.402;17.866;2023-05-20T03:33:11;103041.09;;;9.26;55.81
19795;BME280;10057;59.402;17.866;2023-05-20T03:35:38;103048.22;;;9.30;56.45
19795;BME280;10057;59.402;17.866;2023-05-20T03:38:05;103059.72;;;9.34;56.47
19795;BME280;10057;59.402;17.866;2023-05-20T03:40:32;103056.16;;;9.36;56.49
19795;BME280;10057;59.402;17.866;2023-05-20T03:42:58;103050.91;;;9.38;56.29
19795;BME280;10057;59.402;17.866;2023-05-20T03:45:25;103055.31;;;9.40;56.51
19795;BME280;10057;59.402;17.866;2023-05-20T03:47:52;103049.13;;;9.41;56.31
19795;BME280;10057;59.402;17.866;2023-05-20T03:50:18;103050.91;;;9.45;56.60
19795;BME280;10057;59.402;17.866;2023-05-20T03:52:45;103046.53;;;9.47;56.24
19795;BME280;10057;59.402;17.866;2023-05-20T03:55:12;103051.84;;;9.51;55.71
19795;BME280;10057;59.402;17.866;2023-05-20T03:57:39;103052.72;;;9.54;56.24
19795;BME280;10057;59.402;17.866;2023-05-20T04:00:06;103053.63;;;9.58;56.31
19795;BME280;10057;59.402;17.866;2023-05-20T04:02:37;103051.84;;;9.63;56.69
19795;BME280;10057;59.402;17.866;2023-05-20T04:05:04;103058.09;;;9.68;56.37
19795;BME280;10057;59.402;17.866;2023-05-20T04:07:35;103053.66;;;9.70;56.08
19795;BME280;10057;59.402;17.866;2023-05-20T04:10:03;103055.41;;;9.74;56.14
19795;BME280;10057;59.402;17.866;2023-05-20T04:12:30;103049.28;;;9.78;56.45
19795;BME280;10057;59.402;17.866;2023-05-20T04:14:58;103051.91;;;9.84;56.13
19795;BME280;10057;59.402;17.866;2023-05-20T04:17:30;103049.28;;;9.87;56.03
19795;BME280;10057;59.402;17.866;2023-05-20T04:19:57;103054.59;;;9.93;55.95
19795;BME280;10057;59.402;17.866;2023-05-20T04:22:26;103049.31;;;10.00;55.64
19795;BME280;10057;59.402;17.866;2023-05-20T04:24:53;103055.50;;;10.06;55.18
19795;BME280;10057;59.402;17.866;2023-05-20T04:27:20;103052.88;;;10.09;55.30
19795;BME280;10057;59.402;17.866;2023-05-20T04:29:47;103045.81;;;10.16;55.52
19795;BME280;10057;59.402;17.866;2023-05-20T04:32:16;103051.09;;;10.22;55.63
19795;BME280;10057;59.402;17.866;2023-05-20T04:34:45;103048.44;;;10.25;55.07
19795;BME280;10057;59.402;17.866;2023-05-20T04:37:12;103052.03;;;10.32;55.13
19795;BME280;10057;59.402;17.866;2023-05-20T04:39:39;103054.69;;;10.35;54.89
19795;BME280;10057;59.402;17.866;2023-05-20T04:42:06;103057.34;;;10.41;55.04
19795;BME280;10057;59.402;17.866;2023-05-20T04:44:33;103056.47;;;10.47;54.91
19795;BME280;10057;59.402;17.866;2023-05-20T04:47:00;103060.88;;;10.54;54.44
19795;BME280;10057;59.402;17.866;2023-05-20T04:49:27;103056.44;;;10.62;54.63
19795;BME280;10057;59.402;17.866;2023-05-20T04:51:56;103050.25;;;10.69;54.17
19795;BME280;10057;59.402;17.866;2023-05-20T04:54:24;103050.22;;;10.77;53.91
19795;BME280;10057;59.402;17.866;2023-05-20T04:56:50;103051.09;;;10.83;53.90
19795;BME280;10057;59.402;17.866;2023-05-20T04:59:17;103050.22;;;10.92;53.85
19795;BME280;10057;59.402;17.866;2023-05-20T05:01:44;103046.63;;;11.01;53.47
19795;BME280;10057;59.402;17.866;2023-05-20T05:04:11;103053.72;;;11.08;53.25
19795;BME280;10057;59.402;17.866;2023-05-20T05:06:38;103052.81;;;11.13;53.06
19795;BME280;10057;59.402;17.866;2023-05-20T05:09:04;103046.59;;;11.22;52.92
19795;BME280;10057;59.402;17.866;2023-05-20T05:11:31;103065.16;;;11.31;52.88
19795;BME280;10057;59.402;17.866;2023-05-20T05:13:58;103056.25;;;11.42;52.86
19795;BME280;10057;59.402;17.866;2023-05-20T05:16:25;103060.66;;;11.50;52.66
19795;BME280;10057;59.402;17.866;2023-05-20T05:18:52;103056.19;;;11.60;52.54
19795;BME280;10057;59.402;17.866;2023-05-20T05:21:18;103066.78;;;11.69;52.35
19795;BME280;10057;59.402;17.866;2023-05-20T05:23:45;103066.75;;;11.77;52.23
19795;BME280;10057;59.402;17.866;2023-05-20T05:26:12;103069.38;;;11.88;52.11
19795;BME280;10057;59.402;17.866;2023-05-20T05:28:40;103060.44;;;11.98;52.13
19795;BME280;10057;59.402;17.866;2023-05-20T05:31:09;103058.59;;;12.07;51.59
19795;BME280;10057;59.402;17.866;2023-05-20T05:33:35;103060.28;;;12.19;51.70
19795;BME280;10057;59.402;17.866;2023-05-20T05:36:02;103064.66;;;12.29;51.57
19795;BME280;10057;59.402;17.866;2023-05-20T05:38:30;103060.16;;;12.38;51.36
19795;BME280;10057;59.402;17.866;2023-05-20T05:40:57;103060.06;;;12.47;50.99
19795;BME280;10057;59.402;17.866;2023-05-20T05:43:23;103057.31;;;12.54;50.93
19795;BME280;10057;59.402;17.866;2023-05-20T05:45:50;103059.91;;;12.65;50.99
19795;BME280;10057;59.402;17.866;2023-05-20T05:48:17;103068.69;;;12.76;50.62
19795;BME280;10057;59.402;17.866;2023-05-20T05:50:44;103049.97;;;12.84;50.64
19795;BME280;10057;59.402;17.866;2023-05-20T05:53:11;103060.53;;;12.93;50.44
19795;BME280;10057;59.402;17.866;2023-05-20T05:55:38;103061.31;;;13.03;50.34
19795;BME280;10057;59.402;17.866;2023-05-20T05:58:05;103071.88;;;13.09;50.00
19795;BME280;10057;59.402;17.866;2023-05-20T06:00:32;103065.59;;;13.18;50.22
19795;BME280;10057;59.402;17.866;2023-05-20T06:02:59;103064.66;;;13.25;49.89
19795;BME280;10057;59.402;17.866;2023-05-20T06:05:26;103065.44;;;13.33;49.57
19795;BME280;10057;59.402;17.866;2023-05-20T06:07:55;103067.13;;;13.42;49.55
19795;BME280;10057;59.402;17.866;2023-05-20T06:10:22;103071.47;;;13.50;48.86
19795;BME280;10057;59.402;17.866;2023-05-20T06:12:48;103078.44;;;13.59;49.15
19795;BME280;10057;59.402;17.866;2023-05-20T06:15:15;103069.47;;;13.66;48.45
19795;BME280;10057;59.402;17.866;2023-05-20T06:17:42;103072.94;;;13.74;48.84
19795;BME280;10057;59.402;17.866;2023-05-20T06:20:09;103073.72;;;13.81;48.51
19795;BME280;10057;59.402;17.866;2023-05-20T06:22:36;103073.63;;;13.87;48.36
19795;BME280;10057;59.402;17.866;2023-05-20T06:25:03;103070.88;;;13.95;48.50
19795;BME280;10057;59.402;17.866;2023-05-20T06:27:31;103065.41;;;14.01;47.75
19795;BME280;10057;59.402;17.866;2023-05-20T06:29:58;103069.81;;;14.05;47.83
19795;BME280;10057;59.402;17.866;2023-05-20T06:32:26;103057.22;;;14.12;47.50
19795;BME280;10057;59.402;17.866;2023-05-20T06:34:53;103060.69;;;14.18;47.60
19795;BME280;10057;59.402;17.866;2023-05-20T06:37:20;103079.28;;;14.25;47.15
19795;BME280;10057;59.402;17.866;2023-05-20T06:39:50;103065.84;;;14.31;47.06
19795;BME280;10057;59.402;17.866;2023-05-20T06:42:19;103065.72;;;14.38;46.86
19795;BME280;10057;59.402;17.866;2023-05-20T06:44:47;103070.97;;;14.44;46.75
19795;BME280;10057;59.402;17.866;2023-05-20T06:47:15;103069.13;;;14.50;46.67
19795;BME280;10057;59.402;17.866;2023-05-20T06:49:43;103081.50;;;14.57;46.50
19795;BME280;10057;59.402;17.866;2023-05-20T06:52:13;103079.56;;;14.65;46.17
19795;BME280;10057;59.402;17.866;2023-05-20T06:54:39;103078.59;;;14.71;46.31
19795;BME280;10057;59.402;17.866;2023-05-20T06:57:07;103075.78;;;14.77;46.14
19795;BME280;10057;59.402;17.866;2023-05-20T06:59:35;103081.00;;;14.84;45.99
19795;BME280;10057;59.402;17.866;2023-05-20T07:02:03;103078.19;;;14.92;45.83
19795;BME280;10057;59.402;17.866;2023-05-20T07:04:30;103074.53;;;14.96;45.70
19795;BME280;10057;59.402;17.866;2023-05-20T07:06:57;103077.13;;;15.01;45.36
19795;BME280;10057;59.402;17.866;2023-05-20T07:09:23;103076.13;;;15.06;45.45
19795;BME280;10057;59.402;17.866;2023-05-20T07:11:50;103079.63;;;15.11;45.10
19795;BME280;10057;59.402;17.866;2023-05-20T07:14:17;103076.00;;;15.12;45.02
19795;BME280;10057;59.402;17.866;2023-05-20T07:16:44;103080.38;;;15.18;45.09
19795;BME280;10057;59.402;17.866;2023-05-20T07:19:10;103076.63;;;15.27;45.13
19795;BME280;10057;59.402;17.866;2023-05-20T07:21:37;103078.25;;;15.34;44.99
19795;BME280;10057;59.402;17.866;2023-05-20T07:24:04;103069.22;;;15.39;44.85
19795;BME280;10057;59.402;17.866;2023-05-20T07:26:31;103072.63;;;15.48;44.72
19795;BME280;10057;59.402;17.866;2023-05-20T07:29:02;103067.16;;;15.54;44.44
19795;BME280;10057;59.402;17.866;2023-05-20T07:31:29;103078.66;;;15.59;44.22
19795;BME280;10057;59.402;17.866;2023-05-20T07:33:57;103084.78;;;15.64;44.38
19795;BME280;10057;59.402;17.866;2023-05-20T07:36:27;103073.97;;;15.70;44.26
19795;BME280;10057;59.402;17.866;2023-05-20T07:38:54;103081.81;;;15.78;44.00
19795;BME280;10057;59.402;17.866;2023-05-20T07:41:30;103071.00;;;15.84;43.84
19795;BME280;10057;59.402;17.866;2023-05-20T07:43:57;103081.56;;;15.88;43.95
19795;BME280;10057;59.402;17.866;2023-05-20T07:46:23;103084.06;;;15.96;44.08
19795;BME280;10057;59.402;17.866;2023-05-20T07:48:50;103078.56;;;16.04;43.82
19795;BME280;10057;59.402;17.866;2023-05-20T07:51:17;103079.25;;;16.12;43.67
19795;BME280;10057;59.402;17.866;2023-05-20T07:53:44;103063.97;;;16.17;43.51
19795;BME280;10057;59.402;17.866;2023-05-20T07:56:11;103073.72;;;16.20;43.19
19795;BME280;10057;59.402;17.866;2023-05-20T07:58:40;103062.94;;;16.23;43.06
19795;BME280;10057;59.402;17.866;2023-05-20T08:01:07;103055.69;;;16.28;43.14
19795;BME280;10057;59.402;17.866;2023-05-20T08:03:35;103059.09;;;16.33;42.78
19795;BME280;10057;59.402;17.866;2023-05-20T08:06:02;103063.44;;;16.39;42.55
19795;BME280;10057;59.402;17.866;2023-05-20T08:08:29;103068.69;;;16.43;42.28
19795;BME280;10057;59.402;17.866;2023-05-20T08:10:56;103067.66;;;16.47;42.33
19795;BME280;10057;59.402;17.866;2023-05-20T08:13:23;103064.81;;;16.55;41.73
19795;BME280;10057;59.402;17.866;2023-05-20T08:15:52;103052.16;;;16.60;41.55
19795;BME280;10057;59.402;17.866;2023-05-20T08:18:20;103055.56;;;16.67;41.46
19795;BME280;10057;59.402;17.866;2023-05-20T08:20:47;103066.13;;;16.73;41.15
19795;BME280;10057;59.402;17.866;2023-05-20T08:23:13;103054.34;;;16.80;40.66
19795;BME280;10057;59.402;17.866;2023-05-20T08:25:40;103057.69;;;16.88;40.67
19795;BME280;10057;59.402;17.866;2023-05-20T08:28:07;103052.09;;;16.97;40.49
19795;BME280;10057;59.402;17.866;2023-05-20T08:30:34;103055.50;;;17.02;40.48
19795;BME280;10057;59.402;17.866;2023-05-20T08:33:00;103053.53;;;17.09;40.53
19795;BME280;10057;59.402;17.866;2023-05-20T08:35:27;103058.72;;;17.17;40.11
19795;BME280;10057;59.402;17.866;2023-05-20T08:37:54;103049.66;;;17.21;39.86
19795;BME280;10057;59.402;17.866;2023-05-20T08:40:21;103052.97;;;17.29;39.61
19795;BME280;10057;59.402;17.866;2023-05-20T08:42:49;103052.91;;;17.32;39.42
19795;BME280;10057;59.402;17.866;2023-05-20T08:45:20;103055.56;;;17.34;39.36
19795;BME280;10057;59.402;17.866;2023-05-20T08:47:49;103058.94;;;17.40;39.51
19795;BME280;10057;59.402;17.866;2023-05-20T08:50:16;103058.69;;;17.48;39.30
19795;BME280;10057;59.402;17.866;2023-05-20T08:52:45;103047.00;;;17.50;39.38
19795;BME280;10057;59.402;17.866;2023-05-20T08:55:24;103043.13;;;17.61;39.63
19795;BME280;10057;59.402;17.866;2023-05-20T08:57:53;103042.78;;;17.71;39.74
19795;BME280;10057;59.402;17.866;2023-05-20T09:00:21;103037.03;;;17.84;39.24
19795;BME280;10057;59.402;17.866;2023-05-20T09:02:53;103039.34;;;17.96;39.24
19795;BME280;10057;59.402;17.866;2023-05-20T09:05:21;103033.56;;;18.08;39.08
19795;BME280;10057;59.402;17.866;2023-05-20T09:07:48;103034.22;;;18.16;39.16
19795;BME280;10057;59.402;17.866;2023-05-20T09:10:15;103032.03;;;18.28;39.01
19795;BME280;10057;59.402;17.866;2023-05-20T09:12:42;103037.16;;;18.35;39.07
19795;BME280;10057;59.402;17.866;2023-05-20T09:15:09;103034.00;;;18.49;38.90
19795;BME280;10057;59.402;17.866;2023-05-20T09:17:36;103021.06;;;18.60;39.09
19795;BME280;10057;59.402;17.866;2023-05-20T09:20:08;103029.56;;;18.75;39.00
19795;BME280;10057;59.402;17.866;2023-05-20T09:22:38;103024.66;;;18.86;38.48
19795;BME280;10057;59.402;17.866;2023-05-20T09:25:05;103026.06;;;18.98;38.43
19795;BME280;10057;59.402;17.866;2023-05-20T09:27:32;103029.31;;;19.06;38.09
19795;BME280;10057;59.402;17.866;2023-05-20T09:29:59;103025.47;;;19.13;37.68
19795;BME280;10057;59.402;17.866;2023-05-20T09:32:27;103027.22;;;19.14;37.35
19795;BME280;10057;59.402;17.866;2023-05-20T09:34:54;103032.47;;;19.17;37.30
19795;BME280;10057;59.402;17.866;2023-05-20T09:37:22;103027.75;;;19.24;37.22
19795;BME280;10057;59.402;17.866;2023-05-20T09:39:55;103014.91;;;19.32;36.93
19795;BME280;10057;59.402;17.866;2023-05-20T09:42:26;103026.13;;;19.43;36.95
19795;BME280;10057;59.402;17.866;2023-05-20T09:44:54;103033.84;;;19.52;36.67
19795;BME280;10057;59.402;17.866;2023-05-20T09:47:25;103017.75;;;19.51;36.96
19795;BME280;10057;59.402;17.866;2023-05-20T09:49:52;103019.13;;;19.61;37.34
19795;BME280;10057;59.402;17.866;2023-05-20T09:52:19;103020.38;;;19.76;37.00
19795;BME280;10057;59.402;17.866;2023-05-20T09:54:47;103014.50;;;19.88;36.56
19795;BME280;10057;59.402;17.866;2023-05-20T09:57:15;103015.38;;;19.88;35.95
19795;BME280;10057;59.402;17.866;2023-05-20T09:59:43;103013.66;;;19.86;35.99
19795;BME280;10057;59.402;17.866;2023-05-20T10:02:11;103015.22;;;19.93;36.24
19795;BME280;10057;59.402;17.866;2023-05-20T10:04:42;103018.25;;;20.06;35.96
19795;BME280;10057;59.402;17.866;2023-05-20T10:15:59;103003.00;;;20.47;34.47
19795;BME280;10057;59.402;17.866;2023-05-20T10:19:02;103001.53;;;20.40;34.20
19795;BME280;10057;59.402;17.866;2023-05-20T10:21:32;103007.31;;;20.53;34.13
19795;BME280;10057;59.402;17.866;2023-05-20T10:24:08;102997.88;;;20.63;33.95
19795;BME280;10057;59.402;17.866;2023-05-20T10:26:41;103000.22;;;20.71;33.44
19795;BME280;10057;59.402;17.866;2023-05-20T10:29:17;102988.22;;;20.78;33.44
19795;BME280;10057;59.402;17.866;2023-05-20T10:31:49;102991.50;;;20.85;33.10
19795;BME280;10057;59.402;17.866;2023-05-20T10:34:19;102987.59;;;20.92;33.01
19795;BME280;10057;59.402;17.866;2023-05-20T10:36:57;102996.22;;;21.00;32.98
19795;BME280;10057;59.402;17.866;2023-05-20T10:39:26;102988.91;;;21.02;32.68
19795;BME280;10057;59.402;17.866;2023-05-20T10:42:14;102992.56;;;21.01;32.67
19795;BME280;10057;59.402;17.866;2023-05-20T10:44:45;102993.16;;;21.08;32.67
19795;BME280;10057;59.402;17.866;2023-05-20T10:47:13;102989.97;;;21.18;32.96
19795;BME280;10057;59.402;17.866;2023-05-20T10:49:46;102987.47;;;21.33;32.18
19795;BME280;10057;59.402;17.866;2023-05-20T10:52:13;102987.22;;;21.39;32.01
19795;BME280;10057;59.402;17.866;2023-05-20T10:55:17;102982.09;;;21.33;31.55
19795;BME280;10057;59.402;17.866;2023-05-20T10:57:44;102977.72;;;21.30;31.85
19795;BME280;10057;59.402;17.866;2023-05-20T11:00:12;102981.31;;;21.30;31.76
19795;BME280;10057;59.402;17.866;2023-05-20T11:02:38;102980.34;;;21.32;31.59
19795;BME280;10057;59.402;17.866;2023-05-20T11:05:10;102978.16;;;21.21;31.64
19795;BME280;10057;59.402;17.866;2023-05-20T11:07:37;102980.13;;;21.17;31.99
19795;BME280;10057;59.402;17.866;2023-05-20T11:10:07;102974.63;;;21.19;32.07
19795;BME280;10057;59.402;17.866;2023-05-20T11:12:34;102978.50;;;21.32;32.26
19795;BME280;10057;59.402;17.866;2023-05-20T11:15:01;102963.91;;;21.38;32.23
19795;BME280;10057;59.402;17.866;2023-05-20T11:17:28;102976.94;;;21.47;32.23
19795;BME280;10057;59.402;17.866;2023-05-20T11:19:55;102964.69;;;21.59;31.68
19795;BME280;10057;59.402;17.866;2023-05-20T11:22:26;102960.81;;;21.64;31.36
19795;BME280;10057;59.402;17.866;2023-05-20T11:24:52;102959.47;;;21.73;31.44
19795;BME280;10057;59.402;17.866;2023-05-20T11:27:19;102955.13;;;21.88;31.06
19795;BME280;10057;59.402;17.866;2023-05-20T11:29:48;102946.84;;;21.91;30.62
19795;BME280;10057;59.402;17.866;2023-05-20T11:32:18;102956.41;;;21.98;30.59
19795;BME280;10057;59.402;17.866;2023-05-20T11:34:50;102957.63;;;22.10;30.19
19795;BME280;10057;59.402;17.866;2023-05-20T11:37:17;102956.28;;;22.18;29.34
19795;BME280;10057;59.402;17.866;2023-05-20T11:39:44;102950.66;;;22.23;29.06
19795;BME280;10057;59.402;17.866;2023-05-20T11:42:14;102953.13;;;22.28;28.73
19795;BME280;10057;59.402;17.866;2023-05-20T11:44:43;102944.03;;;22.29;28.07
19795;BME280;10057;59.402;17.866;2023-05-20T11:47:10;102943.44;;;22.23;28.44
19795;BME280;10057;59.402;17.866;2023-05-20T11:49:40;102933.31;;;22.27;28.26
19795;BME280;10057;59.402;17.866;2023-05-20T11:52:08;102938.72;;;22.27;27.41
19795;BME280;10057;59.402;17.866;2023-05-20T11:54:36;102933.38;;;22.26;27.46
19795;BME280;10057;59.402;17.866;2023-05-20T11:57:03;102932.47;;;22.27;27.35
19795;BME280;10057;59.402;17.866;2023-05-20T11:59:32;102937.47;;;22.34;27.18
19795;BME280;10057;59.402;17.866;2023-05-20T12:01:59;102938.81;;;22.43;26.72
19795;BME280;10057;59.402;17.866;2023-05-20T12:04:26;102936.72;;;22.48;26.90
19795;BME280;10057;59.402;17.866;2023-05-20T12:06:53;102943.13;;;22.63;26.81
19795;BME280;10057;59.402;17.866;2023-05-20T12:09:21;102932.63;;;22.74;26.63
19795;BME280;10057;59.402;17.866;2023-05-20T12:11:48;102929.34;;;22.85;26.67
19795;BME280;10057;59.402;17.866;2023-05-20T12:14:14;102929.06;;;22.89;26.55
19795;BME280;10057;59.402;17.866;2023-05-20T12:16:41;102931.47;;;22.96;26.51
19795;BME280;10057;59.402;17.866;2023-05-20T12:19:08;102926.88;;;22.98;26.58
19795;BME280;10057;59.402;17.866;2023-05-20T12:21:34;102928.50;;;23.00;26.73
19795;BME280;10057;59.402;17.866;2023-05-20T12:24:02;102922.22;;;23.00;26.47
19795;BME280;10057;59.402;17.866;2023-05-20T12:26:30;102919.78;;;22.95;26.63
19795;BME280;10057;59.402;17.866;2023-05-20T12:28:57;102925.66;;;22.86;26.89
19795;BME280;10057;59.402;17.866;2023-05-20T12:31:24;102926.41;;;22.72;26.53
19795;BME280;10057;59.402;17.866;2023-05-20T12:33:51;102922.47;;;22.62;26.97
19795;BME280;10057;59.402;17.866;2023-05-20T12:36:18;102922.06;;;22.52;26.69
19795;BME280;10057;59.402;17.866;2023-05-20T12:38:45;102921.53;;;22.45;26.84
19795;BME280;10057;59.402;17.866;2023-05-20T12:41:12;102919.69;;;22.46;26.76
19795;BME280;10057;59.402;17.866;2023-05-20T12:43:39;102926.72;;;22.50;26.92
19795;BME280;10057;59.402;17.866;2023-05-20T12:46:06;102921.59;;;22.61;27.19
19795;BME280;10057;59.402;17.866;2023-05-20T12:48:33;102927.06;;;22.77;26.77
19795;BME280;10057;59.402;17.866;2023-05-20T12:50:59;102922.19;;;22.84;27.08
19795;BME280;10057;59.402;17.866;2023-05-20T12:53:26;102916.97;;;22.97;27.05
19795;BME280;10057;59.402;17.866;2023-05-20T12:55:53;102917.00;;;23.12;26.94